Time;durP1;ratioP1;P1;durP2;ratioP2;P2;SDS_P1;SDS_P2;PMS_P1;PMS_P2;Temp;Humidity;BMP_temperature;BMP_pressure;BME280_temperature;BME280_humidity;BME280_pressure;Samples;Min_cycle;Max_cycle;Signal;HPM_P1;HPM_P2
2022/07/17 00:00:42;;;;;;;4.40;4.00;;;20.70;9.50;;;;;;5049188;28;20807;-74
2022/07/17 00:03:12;;;;;;;8.77;4.40;;;20.70;10.00;;;;;;5035125;28;20416;-74
2022/07/17 00:05:38;;;;;;;8.10;4.57;;;20.70;10.20;;;;;;5059309;28;20449;-74
2022/07/17 00:08:06;;;;;;;6.40;4.53;;;20.60;10.60;;;;;;5053004;28;20831;-73
2022/07/17 00:10:36;;;;;;;9.63;5.00;;;20.60;10.80;;;;;;5042017;28;20788;-73
2022/07/17 00:13:02;;;;;;;25.27;6.93;;;20.50;11.60;;;;;;5062658;28;20575;-74
2022/07/17 00:15:28;;;;;;;23.10;6.00;;;20.50;12.90;;;;;;5058570;28;20432;-74
2022/07/17 00:17:54;;;;;;;14.77;5.60;;;20.30;12.80;;;;;;5064618;28;20436;-74
2022/07/17 00:20:20;;;;;;;7.57;4.90;;;20.30;13.40;;;;;;5061258;28;20420;-73
2022/07/17 00:22:46;;;;;;;18.70;8.53;;;20.30;14.40;;;;;;5066199;28;20608;-72
2022/07/17 00:25:13;;;;;;;26.27;16.33;;;20.30;14.70;;;;;;5061083;28;20268;-72
2022/07/17 00:27:39;;;;;;;16.90;10.60;;;20.70;19.20;;;;;;5057055;28;20508;-74
2022/07/17 00:30:05;;;;;;;13.60;9.63;;;21.10;20.20;;;;;;5052388;28;20440;-72
2022/07/17 00:32:31;;;;;;;15.10;6.60;;;21.10;18.90;;;;;;5050165;28;20408;-72
2022/07/17 00:34:57;;;;;;;16.03;6.97;;;21.40;19.50;;;;;;5055061;28;20433;-74
2022/07/17 00:37:26;;;;;;;10.40;5.50;;;21.50;19.70;;;;;;5053544;28;20424;-73
2022/07/17 00:39:52;;;;;;;9.93;5.20;;;21.40;18.60;;;;;;5071368;28;20196;-73
2022/07/17 00:42:18;;;;;;;5.30;4.27;;;21.10;17.70;;;;;;5070494;28;20400;-73
2022/07/17 00:44:44;;;;;;;6.77;4.70;;;21.00;17.80;;;;;;5071606;28;20186;-73
2022/07/17 00:47:16;;;;;;;7.83;6.17;;;20.80;17.30;;;;;;5052769;28;20167;-73
2022/07/17 00:49:42;;;;;;;6.00;4.90;;;20.90;17.50;;;;;;5070704;28;20396;-72
2022/07/17 00:52:09;;;;;;;6.90;5.67;;;20.90;18.00;;;;;;5071321;28;20954;-72
2022/07/17 00:54:37;;;;;;;8.00;6.13;;;21.10;18.60;;;;;;5070838;28;20530;-71
2022/07/17 00:57:06;;;;;;;5.50;4.67;;;21.10;19.30;;;;;;5070980;28;20417;-72
2022/07/17 00:59:34;;;;;;;5.07;4.10;;;21.40;19.00;;;;;;5082005;28;20736;-72
2022/07/17 01:02:10;;;;;;;6.47;5.00;;;21.40;18.70;;;;;;5072689;28;20412;-72
2022/07/17 01:04:36;;;;;;;4.97;4.30;;;21.30;18.80;;;;;;5091112;28;20798;-72
2022/07/17 01:07:08;;;;;;;4.83;4.30;;;21.20;28.40;;;;;;5072478;28;20413;-72
2022/07/17 01:09:34;;;;;;;24.40;6.20;;;21.20;19.10;;;;;;5090818;28;20407;-72
2022/07/17 01:12:01;;;;;;;9.63;4.80;;;21.20;18.10;;;;;;5091082;28;20416;-72
2022/07/17 01:14:27;;;;;;;13.00;5.10;;;21.00;18.10;;;;;;5072315;28;20459;-72
2022/07/17 01:16:54;;;;;;;14.93;5.37;;;20.80;18.10;;;;;;5090633;28;20829;-73
2022/07/17 01:19:21;;;;;;;6.67;6.07;;;20.60;17.50;;;;;;5072094;28;20771;-72
2022/07/17 01:21:49;;;;;;;10.67;6.00;;;20.50;17.40;;;;;;5072640;28;20507;-72
2022/07/17 01:24:15;;;;;;;9.43;5.40;;;20.50;17.80;;;;;;5075406;28;20432;-71
2022/07/17 01:26:45;;;;;;;7.23;4.77;;;20.40;18.50;;;;;;5070843;28;20462;-72
2022/07/17 01:29:14;;;;;;;10.17;5.80;;;20.40;18.50;;;;;;5069356;28;20534;-73
2022/07/17 01:31:41;;;;;;;7.03;5.33;;;20.50;19.00;;;;;;5070514;28;20486;-72
2022/07/17 01:34:09;;;;;;;5.60;5.10;;;20.40;19.10;;;;;;5069481;28;20532;-72
2022/07/17 01:36:36;;;;;;;10.23;5.80;;;20.40;19.80;;;;;;5070883;28;20405;-72
2022/07/17 01:39:02;;;;;;;5.70;5.13;;;20.40;19.80;;;;;;5069710;28;20401;-72
2022/07/17 01:41:28;;;;;;;9.10;5.37;;;20.40;20.20;;;;;;5052422;28;20408;-72
2022/07/17 01:43:55;;;;;;;10.73;4.90;;;20.50;20.80;;;;;;5069848;28;20470;-71
2022/07/17 01:46:21;;;;;;;6.10;4.60;;;20.20;20.80;;;;;;5070605;28;20163;-71
2022/07/17 01:48:47;;;;;;;5.60;5.10;;;20.50;22.00;;;;;;5069325;28;20401;-71
2022/07/17 01:51:13;;;;;;;5.50;4.13;;;20.80;22.20;;;;;;5070474;28;20545;-72
2022/07/17 01:53:38;;;;;;;4.90;4.50;;;20.70;21.80;;;;;;5069442;28;20206;-72
2022/07/17 01:56:04;;;;;;;5.33;4.83;;;20.70;21.80;;;;;;5070228;28;20427;-72
2022/07/17 01:58:30;;;;;;;6.17;4.50;;;20.70;21.50;;;;;;5071313;28;20227;-72
2022/07/17 02:00:56;;;;;;;8.27;4.33;;;20.70;21.40;;;;;;5090339;28;20492;-72
2022/07/17 02:03:22;;;;;;;7.50;4.83;;;20.60;21.20;;;;;;5089864;28;20161;-72
2022/07/17 02:05:48;;;;;;;6.03;4.37;;;20.30;20.80;;;;;;5090314;28;20176;-72
2022/07/17 02:08:14;;;;;;;5.20;4.67;;;20.10;20.70;;;;;;5088844;28;20162;-73
2022/07/17 02:10:43;;;;;;;6.97;4.90;;;20.00;20.80;;;;;;5089701;28;20637;-72
2022/07/17 02:13:11;;;;;;;6.60;4.20;;;20.00;21.40;;;;;;5089186;28;20633;-72
2022/07/17 02:15:37;;;;;;;7.23;4.50;;;20.00;21.60;;;;;;5090115;28;20403;-72
2022/07/17 02:18:02;;;;;;;5.73;5.23;;;19.90;21.80;;;;;;5071653;28;20506;-72
2022/07/17 02:20:28;;;;;;;4.73;4.20;;;19.90;22.30;;;;;;5089975;28;20166;-72
2022/07/17 02:22:54;;;;;;;7.60;4.70;;;19.80;21.90;;;;;;5086008;28;20178;-74
2022/07/17 02:25:20;;;;;;;10.47;6.40;;;19.80;22.20;;;;;;5069887;28;20197;-72
2022/07/17 02:27:48;;;;;;;13.43;4.83;;;19.90;23.50;;;;;;5068468;28;20170;-72
2022/07/17 02:30:17;;;;;;;5.93;4.30;;;19.90;22.90;;;;;;5069204;28;20412;-72
2022/07/17 02:32:43;;;;;;;6.60;3.83;;;20.00;23.10;;;;;;5068815;28;20448;-72
2022/07/17 02:35:10;;;;;;;8.57;5.13;;;20.10;23.40;;;;;;5050985;28;20444;-73
2022/07/17 02:37:37;;;;;;;6.30;5.43;;;20.10;23.10;;;;;;5069353;28;20868;-72
2022/07/17 02:40:06;;;;;;;18.33;5.90;;;20.00;23.10;;;;;;5050297;28;20897;-72
2022/07/17 02:42:32;;;;;;;6.53;4.80;;;19.90;22.90;;;;;;5068600;28;21181;-72
2022/07/17 02:44:59;;;;;;;6.33;5.10;;;19.80;23.40;;;;;;5069207;28;20524;-72
2022/07/17 02:47:26;;;;;;;4.97;4.57;;;19.80;22.60;;;;;;5049505;28;20555;-72
2022/07/17 02:49:52;;;;;;;32.77;6.97;;;19.80;22.90;;;;;;5069168;28;20896;-72
2022/07/17 02:52:18;;;;;;;9.53;4.70;;;19.80;22.80;;;;;;5069045;28;20409;-72
2022/07/17 02:54:44;;;;;;;9.30;4.30;;;19.90;24.10;;;;;;5068568;28;20494;-73
2022/07/17 02:57:10;;;;;;;5.70;4.47;;;20.20;24.20;;;;;;5068827;28;20421;-73
2022/07/17 02:59:37;;;;;;;5.50;4.40;;;20.10;24.00;;;;;;5081120;28;20328;-73
2022/07/17 03:02:05;;;;;;;32.90;6.50;;;20.10;23.90;;;;;;5089595;28;20416;-72
2022/07/17 03:04:31;;;;;;;14.10;5.53;;;19.90;23.60;;;;;;5089224;28;20427;-74
2022/07/17 03:06:57;;;;;;;11.83;5.10;;;19.80;23.40;;;;;;5088909;28;20801;-72
2022/07/17 03:09:23;;;;;;;4.70;4.20;;;19.70;23.50;;;;;;5087760;28;20419;-72
2022/07/17 03:11:52;;;;;;;7.57;3.97;;;19.90;24.10;;;;;;5089057;28;20507;-72
2022/07/17 03:14:17;;;;;;;25.57;5.40;;;20.10;24.80;;;;;;5088692;28;20209;-72
2022/07/17 03:16:43;;;;;;;8.80;3.90;;;20.00;24.00;;;;;;5089514;28;20419;-72
2022/07/17 03:19:09;;;;;;;15.63;5.10;;;20.00;24.00;;;;;;5087918;28;20170;-72
2022/07/17 03:21:35;;;;;;;6.20;4.53;;;19.60;23.20;;;;;;5088961;28;20207;-72
2022/07/17 03:24:01;;;;;;;8.00;5.27;;;19.40;23.80;;;;;;5075048;28;20224;-72
2022/07/17 03:26:27;;;;;;;14.17;5.13;;;19.30;23.70;;;;;;5069064;28;20174;-72
2022/07/17 03:28:53;;;;;;;12.43;4.70;;;19.30;35.70;;;;;;5068356;28;20341;-73
2022/07/17 03:31:18;;;;;;;17.10;5.63;;;19.20;24.50;;;;;;5069668;28;20178;-73
2022/07/17 03:33:44;;;;;;;8.80;4.90;;;19.20;24.60;;;;;;5069186;28;20197;-72
2022/07/17 03:36:10;;;;;;;7.90;5.37;;;19.30;25.10;;;;;;5069709;28;20205;-73
2022/07/17 03:38:36;;;;;;;17.20;7.17;;;19.20;25.50;;;;;;5067902;28;20170;-72
2022/07/17 03:41:01;;;;;;;11.97;4.60;;;19.20;25.40;;;;;;5069071;28;20315;-71
2022/07/17 03:43:27;;;;;;;49.50;7.70;;;19.30;26.30;;;;;;5068942;28;20198;-71
2022/07/17 03:45:53;;;;;;;11.13;4.90;;;19.40;26.40;;;;;;5070318;28;20702;-71
2022/07/17 03:48:19;;;;;;;4.80;4.17;;;19.40;26.30;;;;;;5072967;28;20325;-72
2022/07/17 03:50:45;;;;;;;7.40;4.43;;;19.40;26.80;;;;;;5059111;28;20181;-72
2022/07/17 03:53:10;;;;;;;8.20;4.60;;;19.30;27.60;;;;;;5078779;28;20221;-72
2022/07/17 03:55:39;;;;;;;16.13;5.03;;;19.30;27.90;;;;;;5078060;28;20166;-72
2022/07/17 03:58:05;;;;;;;29.20;6.73;;;19.40;28.20;;;;;;5085170;28;20181;-73
2022/07/17 04:00:31;;;;;;;11.73;4.57;;;19.60;28.70;;;;;;5084918;28;20417;-72
2022/07/17 04:02:57;;;;;;;100.17;11.53;;;19.60;29.70;;;;;;5072412;28;20205;-74
2022/07/17 04:05:23;;;;;;;49.17;8.50;;;19.80;29.60;;;;;;5072166;28;20588;-74
2022/07/17 04:07:49;;;;;;;88.73;11.47;;;19.90;30.30;;;;;;5071281;28;20208;-70
2022/07/17 04:10:15;;;;;;;33.33;9.27;;;19.90;43.00;;;;;;5072110;28;20170;-72
2022/07/17 04:12:41;;;;;;;20.07;5.50;;;19.80;30.70;;;;;;5071608;28;20198;-71
2022/07/17 04:15:08;;;;;;;16.93;7.00;;;20.00;31.40;;;;;;5072277;28;20507;-73
2022/07/17 04:17:36;;;;;;;22.33;5.60;;;20.00;32.50;;;;;;5070981;28;20450;-71
2022/07/17 04:20:04;;;;;;;47.77;7.53;;;20.10;32.00;;;;;;5071734;28;20400;-72
2022/07/17 04:22:29;;;;;;;15.87;5.43;;;20.10;32.00;;;;;;5072160;28;20413;-70
2022/07/17 04:24:55;;;;;;;5.33;3.97;;;20.20;31.90;;;;;;5071574;28;21033;-72
2022/07/17 04:27:21;;;;;;;9.20;4.50;;;20.00;31.60;;;;;;5071030;28;20167;-73
2022/07/17 04:29:47;;;;;;;13.00;5.50;;;20.10;31.60;;;;;;5071698;28;20171;-70
2022/07/17 04:32:13;;;;;;;33.17;9.37;;;19.90;32.40;;;;;;5071545;28;20531;-71
2022/07/17 04:34:39;;;;;;;13.60;6.70;;;20.40;33.60;;;;;;5071946;28;20209;-74
2022/07/17 04:37:04;;;;;;;15.70;7.70;;;20.70;34.00;;;;;;5071183;28;20484;-71
2022/07/17 04:39:31;;;;;;;24.73;6.50;;;20.90;33.40;;;;;;5070740;28;20173;-71
2022/07/17 04:41:57;;;;;;;20.27;6.40;;;20.90;32.70;;;;;;5071676;28;20194;-72
2022/07/17 04:44:26;;;;;;;40.80;7.73;;;20.90;32.20;;;;;;5071081;28;20427;-70
2022/07/17 04:46:52;;;;;;;14.80;4.90;;;21.00;32.30;;;;;;5071324;28;20404;-72
2022/07/17 04:49:17;;;;;;;50.43;8.17;;;21.00;31.20;;;;;;5052615;28;20452;-72
2022/07/17 04:51:43;;;;;;;13.13;6.90;;;21.20;31.20;;;;;;5071445;28;20683;-72
2022/07/17 04:54:09;;;;;;;7.20;4.70;;;21.20;30.30;;;;;;5070554;28;20214;-72
2022/07/17 04:56:34;;;;;;;7.40;5.23;;;21.30;30.10;;;;;;5071194;28;20531;-72
2022/07/17 04:59:00;;;;;;;16.37;4.73;;;21.30;30.30;;;;;;5076372;28;20209;-71
2022/07/17 05:01:26;;;;;;;6.77;5.20;;;21.40;30.00;;;;;;5091916;28;20166;-70
2022/07/17 05:03:51;;;;;;;9.60;5.10;;;21.70;29.70;;;;;;5090766;28;20522;-71
2022/07/17 05:06:17;;;;;;;9.50;6.00;;;21.70;29.80;;;;;;5091268;28;20718;-71
2022/07/17 05:08:43;;;;;;;26.00;9.23;;;21.80;28.80;;;;;;5088881;28;20502;-73
2022/07/17 05:11:09;;;;;;;47.17;11.43;;;21.90;28.80;;;;;;5090966;28;20255;-70
2022/07/17 05:13:34;;;;;;;20.60;6.93;;;21.90;28.20;;;;;;5090625;28;20288;-71
2022/07/17 05:16:00;;;;;;;15.70;5.67;;;21.90;27.70;;;;;;5090793;28;20174;-71
2022/07/17 05:18:26;;;;;;;7.00;5.70;;;22.00;27.30;;;;;;5089731;28;20901;-70
2022/07/17 05:20:51;;;;;;;10.00;9.00;;;22.00;27.20;;;;;;5091260;28;20161;-72
2022/07/17 05:23:17;;;;;;;9.10;8.30;;;22.10;27.20;;;;;;5083682;28;20253;-73
2022/07/17 05:25:43;;;;;;;10.53;8.00;;;22.20;26.40;;;;;;5071159;28;20174;-71
2022/07/17 05:28:09;;;;;;;10.80;9.80;;;22.40;26.80;;;;;;5069643;28;20741;-71
2022/07/17 05:30:35;;;;;;;8.83;7.53;;;22.40;25.90;;;;;;5070934;28;20485;-71
2022/07/17 05:33:01;;;;;;;5.90;5.40;;;22.30;25.60;;;;;;5070204;28;20209;-71
2022/07/17 05:35:26;;;;;;;6.93;4.40;;;22.30;25.10;;;;;;5070764;28;20194;-73
2022/07/17 05:37:52;;;;;;;7.57;5.80;;;22.50;24.70;;;;;;5069715;28;20170;-73
2022/07/17 05:40:18;;;;;;;14.60;6.20;;;22.50;24.10;;;;;;5070831;28;20173;-71
2022/07/17 05:42:43;;;;;;;7.93;6.80;;;22.50;23.40;;;;;;5069767;28;20550;-71
2022/07/17 05:45:09;;;;;;;5.23;4.13;;;22.60;23.60;;;;;;5070311;28;20266;-72
2022/07/17 05:47:35;;;;;;;9.50;5.00;;;22.70;23.10;;;;;;5069328;28;20162;-72
2022/07/17 05:50:01;;;;;;;11.40;4.30;;;22.60;21.70;;;;;;5070094;28;20177;-73
2022/07/17 05:52:26;;;;;;;7.70;4.10;;;22.60;21.40;;;;;;5070945;28;20723;-72
2022/07/17 05:54:52;;;;;;;31.90;6.53;;;22.00;19.00;;;;;;5070320;28;20271;-72
2022/07/17 05:57:18;;;;;;;5.27;4.00;;;21.50;18.80;;;;;;5070024;28;20180;-73
2022/07/17 05:59:44;;;;;;;5.10;3.93;;;20.70;16.80;;;;;;5083531;28;20426;-72
2022/07/17 06:02:09;;;;;;;5.33;3.70;;;20.20;16.80;;;;;;5090606;28;20588;-70
2022/07/17 06:04:35;;;;;;;5.30;3.40;;;20.30;17.20;;;;;;5091179;28;20342;-72
2022/07/17 06:07:01;;;;;;;4.53;3.10;;;20.70;19.00;;;;;;5089713;28;20170;-71
2022/07/17 06:09:26;;;;;;;3.93;3.40;;;21.30;19.30;;;;;;5089948;28;20165;-72
2022/07/17 06:11:52;;;;;;;6.30;4.90;;;20.40;18.10;;;;;;5090655;28;20265;-73
2022/07/17 06:14:18;;;;;;;5.00;3.57;;;21.00;18.80;;;;;;5089703;28;20269;-72
2022/07/17 06:16:43;;;;;;;5.27;3.67;;;21.40;19.40;;;;;;5090321;28;20252;-71
2022/07/17 06:19:09;;;;;;;4.80;4.30;;;20.90;17.50;;;;;;5089096;28;20463;-72
2022/07/17 06:21:35;;;;;;;4.27;3.47;;;21.80;19.50;;;;;;5090364;28;20176;-71
2022/07/17 06:24:02;;;;;;;6.17;3.80;;;21.00;16.20;;;;;;5076253;28;20248;-71
2022/07/17 06:26:27;;;;;;;4.80;3.97;;;21.50;18.00;;;;;;5070041;28;20767;-70
2022/07/17 06:28:53;;;;;;;3.73;3.40;;;22.20;19.00;;;;;;5068689;28;20201;-71
2022/07/17 06:31:19;;;;;;;4.83;3.77;;;21.70;16.80;;;;;;5069443;28;20182;-70
2022/07/17 06:33:45;;;;;;;7.17;4.50;;;22.00;17.30;;;;;;5068897;28;20202;-68
2022/07/17 06:36:10;;;;;;;11.57;4.70;;;22.50;17.50;;;;;;5069168;28;20206;-70
2022/07/17 06:38:36;;;;;;;8.20;3.80;;;22.20;16.80;;;;;;5068410;28;20236;-69
2022/07/17 06:41:02;;;;;;;3.33;3.03;;;22.50;17.30;;;;;;5051449;28;20235;-70
2022/07/17 06:44:21;;;;;;;4.33;3.50;;;22.00;14.90;;;;;;5068850;28;20263;-71
2022/07/17 06:46:46;;;;;;;5.90;3.40;;;21.40;14.40;;;;;;5070255;28;20251;-70
2022/07/17 06:49:12;;;;;;;5.43;4.23;;;21.10;14.30;;;;;;5068534;28;20428;-69
2022/07/17 06:51:38;;;;;;;7.67;3.77;;;21.30;15.00;;;;;;5069438;28;20700;-69
2022/07/17 06:54:04;;;;;;;14.60;4.33;;;21.70;15.40;;;;;;5068692;28;20268;-69
2022/07/17 06:56:30;;;;;;;7.37;4.03;;;22.20;17.20;;;;;;5069722;28;20489;-68
2022/07/17 06:58:55;;;;;;;9.40;4.47;;;22.40;16.10;;;;;;5074592;28;20166;-68
2022/07/17 07:01:21;;;;;;;3.53;3.23;;;22.80;17.00;;;;;;5089708;28;20269;-70
2022/07/17 07:03:47;;;;;;;9.93;3.90;;;23.00;16.10;;;;;;5084658;28;20285;-68
2022/07/17 07:06:13;;;;;;;10.07;5.03;;;22.80;15.30;;;;;;5079262;28;20223;-69
2022/07/17 07:08:38;;;;;;;4.63;3.70;;;23.30;26.50;;;;;;5071307;28;20220;-69
2022/07/17 07:11:04;;;;;;;9.57;4.60;;;23.40;14.80;;;;;;5068092;28;20184;-68
2022/07/17 07:13:33;;;;;;;5.60;3.90;;;23.80;15.30;;;;;;5071261;28;20654;-70
2022/07/17 07:15:59;;;;;;;9.23;4.57;;;23.30;13.30;;;;;;5067750;28;20248;-70
2022/07/17 07:18:25;;;;;;;5.33;4.27;;;23.60;14.30;;;;;;5065007;28;20404;-70
2022/07/17 07:20:51;;;;;;;16.73;6.70;;;23.20;12.60;;;;;;5072629;28;20408;-69
2022/07/17 07:23:17;;;;;;;6.63;4.40;;;23.90;14.00;;;;;;5080217;28;20186;-70
2022/07/17 07:25:44;;;;;;;11.70;4.37;;;23.80;13.20;;;;;;5049456;28;20235;-70
2022/07/17 07:28:10;;;;;;;33.53;6.50;;;23.00;11.00;;;;;;5066092;28;20189;-70
2022/07/17 07:30:36;;;;;;;8.10;4.40;;;22.70;11.80;;;;;;5066770;28;20768;-70
2022/07/17 07:33:01;;;;;;;4.07;3.70;;;22.60;10.90;;;;;;5066975;28;20605;-70
2022/07/17 07:35:28;;;;;;;6.40;3.77;;;22.00;10.80;;;;;;5068104;28;20211;-69
2022/07/17 07:37:54;;;;;;;5.40;3.57;;;22.20;12.00;;;;;;5066694;28;20166;-70
2022/07/17 07:40:19;;;;;;;8.40;4.63;;;21.70;10.80;;;;;;5087535;28;20437;-69
2022/07/17 07:42:45;;;;;;;4.20;3.80;;;21.70;11.30;;;;;;5086507;28;20269;-69
2022/07/17 07:45:11;;;;;;;4.20;3.90;;;21.80;12.40;;;;;;5087837;28;20197;-69
2022/07/17 07:47:41;;;;;;;6.90;4.27;;;22.50;15.10;;;;;;5086535;28;20286;-69
2022/07/17 07:50:07;;;;;;;4.60;3.90;;;22.60;13.70;;;;;;5087676;28;20172;-69
2022/07/17 07:52:33;;;;;;;4.53;3.53;;;22.90;15.00;;;;;;5087151;28;20404;-69
2022/07/17 07:54:58;;;;;;;10.37;4.37;;;23.50;15.50;;;;;;5062284;28;20532;-72
2022/07/17 07:57:24;;;;;;;9.80;4.73;;;23.20;15.00;;;;;;5066294;28;20495;-70
2022/07/17 07:59:50;;;;;;;10.33;3.77;;;23.40;15.30;;;;;;5080204;28;20166;-69
2022/07/17 08:02:16;;;;;;;4.87;3.80;;;23.40;15.20;;;;;;5086133;28;20256;-69
2022/07/17 08:04:41;;;;;;;3.57;3.27;;;23.00;14.40;;;;;;5083777;28;20666;-69
2022/07/17 08:07:07;;;;;;;5.80;3.93;;;23.60;15.70;;;;;;5032862;28;20265;-69
2022/07/17 08:09:33;;;;;;;11.73;4.77;;;23.60;15.20;;;;;;5060793;28;20538;-70
2022/07/17 08:11:59;;;;;;;9.27;4.00;;;24.00;15.70;;;;;;5044022;28;20185;-71
2022/07/17 08:14:25;;;;;;;31.20;6.97;;;24.20;15.00;;;;;;5063591;28;20683;-71
2022/07/17 08:16:50;;;;;;;5.17;4.20;;;24.30;15.00;;;;;;5064231;28;20662;-69
2022/07/17 08:19:16;;;;;;;4.93;3.90;;;24.00;13.60;;;;;;5045726;28;20178;-68
2022/07/17 08:21:42;;;;;;;8.00;4.23;;;23.70;12.90;;;;;;5061371;28;20182;-70
2022/07/17 08:24:07;;;;;;;5.67;4.70;;;24.00;13.00;;;;;;5046721;28;20281;-72
2022/07/17 08:26:33;;;;;;;15.37;4.37;;;23.60;12.00;;;;;;5061281;28;20614;-72
2022/07/17 08:28:59;;;;;;;9.40;3.83;;;23.60;12.00;;;;;;5063898;28;20207;-72
2022/07/17 08:31:25;;;;;;;11.17;4.30;;;23.60;12.00;;;;;;5060403;28;20248;-72
2022/07/17 08:33:51;;;;;;;4.33;3.93;;;23.90;12.00;;;;;;5062810;28;20213;-73
2022/07/17 08:36:16;;;;;;;4.60;3.40;;;24.00;11.70;;;;;;5060520;28;20178;-70
2022/07/17 08:38:42;;;;;;;10.60;4.10;;;24.00;11.80;;;;;;5073544;28;20169;-70
2022/07/17 08:41:10;;;;;;;5.70;4.10;;;24.00;10.80;;;;;;5088145;28;20523;-70
2022/07/17 08:43:36;;;;;;;4.10;3.70;;;23.90;10.30;;;;;;5088864;28;20653;-69
2022/07/17 08:46:02;;;;;;;6.13;3.90;;;24.40;10.90;;;;;;5090988;28;20888;-71
2022/07/17 08:48:31;;;;;;;17.83;5.20;;;24.50;10.50;;;;;;5088189;28;20427;-70
2022/07/17 08:50:59;;;;;;;4.97;3.80;;;25.00;10.90;;;;;;5082121;28;20413;-71
2022/07/17 08:53:25;;;;;;;14.13;4.20;;;25.20;10.10;;;;;;5050297;28;20460;-72
2022/07/17 08:55:51;;;;;;;87.17;11.73;;;25.00;9.50;;;;;;5048265;28;20993;-71
2022/07/17 08:58:17;;;;;;;5.80;3.70;;;25.30;8.70;;;;;;5049008;28;20317;-75
2022/07/17 09:00:44;;;;;;;11.70;4.37;;;24.30;5.30;;;;;;5060798;28;20702;-71
2022/07/17 09:03:10;;;;;;;6.70;3.50;;;24.40;5.10;;;;;;5049644;28;20429;-72
2022/07/17 09:05:40;;;;;;;3.93;3.53;;;24.70;4.90;;;;;;5051981;28;20417;-72
2022/07/17 09:08:08;;;;;;;4.37;3.33;;;24.50;3.50;;;;;;5031475;28;20425;-71
2022/07/17 09:10:42;;;;;;;10.20;4.20;;;24.80;4.30;;;;;;5044002;28;20428;-71
2022/07/17 09:13:26;;;;;;;6.07;3.40;;;25.00;2.50;;;;;;5056529;28;20464;-71
2022/07/17 09:15:56;;;;;;;5.93;3.30;;;24.30;1.00;;;;;;5063148;28;20565;-72
2022/07/17 09:18:22;;;;;;;3.43;3.07;;;24.20;1.00;;;;;;5061738;28;20496;-72
2022/07/17 09:20:53;;;;;;;7.40;3.13;;;24.50;1.00;;;;;;5065800;28;20981;-72
2022/07/17 09:23:20;;;;;;;5.00;3.17;;;24.70;1.00;;;;;;5066626;28;20182;-72
2022/07/17 09:25:51;;;;;;;4.03;3.27;;;24.70;1.00;;;;;;5065435;28;20424;-73
2022/07/17 09:28:18;;;;;;;3.47;3.17;;;24.50;1.00;;;;;;5065805;28;20408;-72
2022/07/17 09:30:53;;;;;;;5.80;3.10;;;24.40;1.00;;;;;;5047028;28;20416;-71
2022/07/17 09:33:27;;;;;;;11.27;3.87;;;24.60;1.00;;;;;;5051647;28;20527;-72
2022/07/17 09:36:12;;;;;;;7.63;4.10;;;24.50;1.00;;;;;;5054225;28;20510;-71
2022/07/17 09:38:44;;;;;;;3.67;3.37;;;24.80;2.90;;;;;;5064225;28;20505;-71
2022/07/17 09:41:17;;;;;;;4.20;3.10;;;25.00;1.00;;;;;;5053479;28;20620;-71
2022/07/17 09:43:47;;;;;;;29.77;6.60;;;25.00;1.00;;;;;;5052709;28;20464;-72
2022/07/17 09:46:39;;;;;;;9.13;3.97;;;25.30;1.00;;;;;;5052269;28;20428;-71
2022/07/17 09:49:09;;;;;;;6.50;3.13;;;25.80;1.00;;;;;;5057188;28;20526;-71
2022/07/17 09:51:40;;;;;;;3.80;3.13;;;25.70;1.00;;;;;;5053093;28;21181;-71
2022/07/17 09:54:10;;;;;;;4.50;3.07;;;25.10;1.00;;;;;;5051889;28;20465;-71
2022/07/17 09:56:38;;;;;;;3.73;3.33;;;24.90;1.00;;;;;;5064478;22;20503;-64
2022/07/17 09:59:06;;;;;;;4.77;3.07;;;25.10;1.00;;;;;;5051609;28;20420;-63
2022/07/17 10:01:33;;;;;;;4.93;3.27;;;25.00;1.00;;;;;;5031798;28;20533;-66
2022/07/17 10:03:59;;;;;;;11.90;3.47;;;25.50;1.00;;;;;;5047952;28;20417;-66
2022/07/17 10:06:26;;;;;;;4.70;2.80;;;25.70;1.00;;;;;;5050308;28;20448;-65
2022/07/17 10:08:53;;;;;;;5.53;2.90;;;25.70;1.00;;;;;;5048304;28;20631;-65
2022/07/17 10:11:21;;;;;;;3.57;2.90;;;25.60;1.00;;;;;;5050681;28;20510;-66
2022/07/17 10:13:50;;;;;;;7.80;3.77;;;25.50;1.00;;;;;;5049626;28;20610;-66
2022/07/17 10:16:24;;;;;;;3.97;3.57;;;24.80;1.00;;;;;;5049667;28;20465;-65
2022/07/17 10:18:52;;;;;;;6.80;3.90;;;25.20;1.00;;;;;;5048206;28;20425;-66
2022/07/17 10:21:19;;;;;;;3.50;3.20;;;25.70;1.00;;;;;;5050249;28;20432;-64
2022/07/17 10:23:50;;;;;;;4.70;3.93;;;25.70;1.00;;;;;;5049325;28;20501;-64
2022/07/17 10:26:17;;;;;;;6.40;3.10;;;25.90;1.00;;;;;;5031476;28;20742;-65
2022/07/17 10:28:45;;;;;;;4.60;3.30;;;25.80;1.00;;;;;;5048111;28;20470;-66
2022/07/17 10:31:23;;;;;;;4.57;2.93;;;25.30;1.00;;;;;;5042907;28;20441;-67
2022/07/17 10:34:00;;;;;;;4.70;3.03;;;25.70;1.00;;;;;;5048551;28;20448;-66
2022/07/17 10:36:43;;;;;;;3.10;2.80;;;26.00;1.00;;;;;;5045590;28;20534;-64
2022/07/17 10:39:22;;;;;;;4.77;3.13;;;25.90;1.00;;;;;;5048268;28;20428;-66
2022/07/17 10:42:02;;;;;;;3.27;2.97;;;25.90;1.00;;;;;;5049051;28;20455;-66
2022/07/17 10:44:31;;;;;;;3.97;2.70;;;25.30;1.00;;;;;;5049452;28;20408;-64
2022/07/17 10:46:58;;;;;;;23.97;6.40;;;25.40;1.00;;;;;;5047793;28;20445;-65
2022/07/17 10:49:25;;;;;;;16.37;5.47;;;25.90;1.00;;;;;;5030657;28;20420;-65
2022/07/17 10:51:52;;;;;;;4.80;3.87;;;26.40;1.00;;;;;;5030613;28;20454;-68
2022/07/17 10:54:18;;;;;;;3.50;2.97;;;26.00;1.00;;;;;;5048817;28;20460;-67
2022/07/17 10:56:45;;;;;;;3.27;2.93;;;25.70;1.00;;;;;;5049314;28;20564;-65
2022/07/17 10:59:11;;;;;;;9.23;3.63;;;25.60;1.00;;;;;;5044809;28;20578;-67
2022/07/17 11:01:37;;;;;;;9.00;4.40;;;25.80;1.00;;;;;;5049312;28;20441;-65
2022/07/17 11:04:04;;;;;;;4.20;3.40;;;26.10;1.00;;;;;;5048848;28;20495;-66
2022/07/17 11:06:38;;;;;;;5.63;2.60;;;26.30;1.00;;;;;;5048562;28;20198;-63
2022/07/17 11:09:11;;;;;;;3.20;2.47;;;26.50;1.00;;;;;;5046546;28;20906;-66
2022/07/17 11:11:40;;;;;;;3.90;3.27;;;26.10;1.00;;;;;;5048907;28;20416;-67
2022/07/17 11:14:11;;;;;;;4.30;2.87;;;26.10;1.00;;;;;;5030597;28;20448;-66
2022/07/17 11:16:37;;;;;;;6.37;3.40;;;26.40;1.00;;;;;;5048894;28;20441;-65
2022/07/17 11:19:04;;;;;;;5.30;3.10;;;26.10;1.00;;;;;;5047394;28;20425;-66
2022/07/17 11:21:31;;;;;;;4.40;3.10;;;26.30;1.00;;;;;;5049531;28;20511;-64
2022/07/17 11:23:57;;;;;;;7.10;3.30;;;25.80;1.00;;;;;;5048217;28;20435;-65
2022/07/17 11:26:25;;;;;;;11.97;4.07;;;26.00;1.00;;;;;;5048970;28;20799;-65
2022/07/17 11:28:52;;;;;;;4.60;2.90;;;26.30;1.00;;;;;;5047712;28;20175;-65
2022/07/17 11:31:20;;;;;;;2.60;2.40;;;26.60;1.00;;;;;;5048226;28;20520;-67
2022/07/17 11:34:01;;;;;;;3.27;2.77;;;26.80;1.00;;;;;;5049176;28;20456;-67
2022/07/17 11:36:33;;;;;;;3.47;3.17;;;26.50;1.00;;;;;;5045984;28;20519;-68
2022/07/17 11:39:01;;;;;;;6.23;4.07;;;26.40;1.00;;;;;;5048760;28;20439;-64
2022/07/17 11:41:41;;;;;;;4.73;3.43;;;26.30;1.00;;;;;;5048376;28;20432;-67
2022/07/17 11:44:15;;;;;;;10.53;3.67;;;26.50;1.00;;;;;;5046409;28;20425;-65
2022/07/17 11:46:42;;;;;;;7.73;3.20;;;26.70;1.00;;;;;;5047977;28;20437;-66
2022/07/17 11:49:08;;;;;;;2.80;2.60;;;26.70;1.00;;;;;;5047303;28;20544;-65
2022/07/17 11:51:44;;;;;;;13.13;3.80;;;26.60;1.00;;;;;;5049002;28;20848;-67
2022/07/17 11:54:15;;;;;;;6.10;3.00;;;26.70;1.00;;;;;;5046507;28;20568;-67
2022/07/17 11:56:51;;;;;;;2.73;2.27;;;26.90;1.00;;;;;;5048236;28;20461;-66
2022/07/17 11:59:31;;;;;;;5.77;2.77;;;26.60;1.00;;;;;;5043773;28;20948;-65
2022/07/17 12:02:05;;;;;;;5.10;2.73;;;26.60;1.00;;;;;;5048014;28;20935;-66
2022/07/17 12:04:31;;;;;;;3.93;2.67;;;26.30;1.00;;;;;;5048291;28;20514;-66
2022/07/17 12:07:02;;;;;;;5.07;3.13;;;26.40;1.00;;;;;;5047825;28;20890;-64
2022/07/17 12:09:33;;;;;;;3.90;3.50;;;26.50;1.00;;;;;;5047749;28;20185;-65
2022/07/17 12:11:59;;;;;;;7.93;3.20;;;26.30;1.00;;;;;;5046735;28;20451;-64
2022/07/17 12:14:25;;;;;;;4.00;3.00;;;26.30;1.00;;;;;;5043987;28;20457;-66
2022/07/17 12:16:51;;;;;;;8.17;3.20;;;26.30;1.00;;;;;;5048411;28;20429;-66
2022/07/17 12:19:19;;;;;;;13.80;3.60;;;26.40;1.00;;;;;;5050505;28;20166;-64
2022/07/17 12:22:02;;;;;;;10.63;3.60;;;26.70;1.00;;;;;;5053141;28;20416;-66
2022/07/17 12:24:42;;;;;;;4.60;3.27;;;26.70;1.00;;;;;;5048278;28;20541;-65
2022/07/17 12:27:10;;;;;;;22.47;5.80;;;26.80;1.00;;;;;;5052077;28;20781;-67
2022/07/17 12:29:37;;;;;;;13.10;3.60;;;27.00;1.00;;;;;;5052526;28;20767;-66
2022/07/17 12:32:11;;;;;;;6.03;2.83;;;27.20;1.00;;;;;;5053416;28;20416;-65
2022/07/17 12:34:45;;;;;;;3.17;2.70;;;27.30;1.00;;;;;;5047736;28;20587;-67
2022/07/17 12:37:13;;;;;;;6.10;2.80;;;26.70;1.00;;;;;;5033075;28;20428;-65
2022/07/17 12:39:38;;;;;;;4.87;2.53;;;26.50;1.00;;;;;;5051873;28;20759;-64
2022/07/17 12:42:04;;;;;;;13.97;3.57;;;26.70;1.00;;;;;;5052732;28;20412;-65
2022/07/17 12:44:30;;;;;;;2.80;2.30;;;27.00;1.00;;;;;;5051391;28;20251;-67
2022/07/17 12:46:56;;;;;;;5.07;3.30;;;26.90;1.00;;;;;;5050687;28;21838;-65